createdAt,value
2022-11-28T00:01:53.583Z,14.77
2022-11-28T00:04:25.861Z,14.20
2022-11-28T00:06:59.483Z,14.35
2022-11-28T00:09:31.870Z,14.20
2022-11-28T00:12:04.542Z,14.05
2022-11-28T00:14:37.343Z,14.20
2022-11-28T00:17:12.604Z,15.15
2022-11-28T00:19:44.843Z,14.25
2022-11-28T00:22:17.810Z,14.77
2022-11-28T00:24:50.037Z,14.43
2022-11-28T00:27:22.430Z,15.23
2022-11-28T00:29:55.491Z,13.52
2022-11-28T00:32:30.892Z,15.45
2022-11-28T00:35:02.828Z,14.55
2022-11-28T00:37:35.407Z,15.20
2022-11-28T00:40:07.979Z,14.75
2022-11-28T00:42:40.729Z,14.30
2022-11-28T00:45:13.318Z,15.45
2022-11-28T00:47:49.718Z,15.40
2022-11-28T00:50:21.788Z,14.68
2022-11-28T00:52:54.341Z,15.20
2022-11-28T00:55:26.250Z,15.77
2022-11-28T00:57:58.820Z,15.55
2022-11-28T01:00:30.750Z,15.20
2022-11-28T01:03:05.929Z,16.55
2022-11-28T01:05:43.864Z,15.60
2022-11-28T01:08:16.261Z,15.68
2022-11-28T01:10:49.535Z,16.33
2022-11-28T01:13:22.040Z,16.70
2022-11-28T01:15:54.330Z,15.95
2022-11-28T01:18:29.381Z,16.83
2022-11-28T01:21:01.238Z,16.70
2022-11-28T01:23:33.830Z,16.77
2022-11-28T01:26:06.588Z,17.38
2022-11-28T01:28:39.849Z,17.90
2022-11-28T01:31:14.903Z,18.70
2022-11-28T01:33:50.312Z,17.23
2022-11-28T01:36:23.431Z,18.45
2022-11-28T01:38:55.939Z,18.77
2022-11-28T01:41:29.731Z,18.58
2022-11-28T01:44:32.173Z,18.80
2022-11-28T01:47:04.270Z,18.23
2022-11-28T01:49:41.458Z,17.38
2022-11-28T01:52:17.348Z,17.83
2022-11-28T01:54:54.380Z,17.58
2022-11-28T01:57:29.429Z,17.38
2022-11-28T02:00:09.349Z,18.88
2022-11-28T02:02:44.974Z,17.50
2022-11-28T02:05:22.883Z,18.50
2022-11-28T02:07:55.581Z,16.65
2022-11-28T02:10:31.948Z,17.63
2022-11-28T02:13:22.221Z,17.38
2022-11-28T02:16:14.641Z,18.98
2022-11-28T02:19:02.430Z,15.98
2022-11-28T02:22:01.921Z,16.98
2022-11-28T02:25:00.041Z,16.73
2022-11-28T02:28:12.935Z,16.60
2022-11-28T02:30:55.651Z,16.48
2022-11-28T02:33:35.039Z,15.88
2022-11-28T02:36:16.081Z,15.70
2022-11-28T02:39:02.930Z,16.20
2022-11-28T02:41:44.777Z,16.85
2022-11-28T02:44:21.319Z,16.80
2022-11-28T02:47:01.328Z,16.63
2022-11-28T02:49:40.520Z,15.80
2022-11-28T02:52:18.190Z,15.85
2022-11-28T02:54:52.379Z,16.85
2022-11-28T02:57:24.761Z,16.38
2022-11-28T02:59:57.190Z,15.45
2022-11-28T03:02:33.004Z,16.92
2022-11-28T03:05:38.569Z,16.08
2022-11-28T03:08:25.588Z,16.08
2022-11-28T03:11:06.886Z,15.57
2022-11-28T03:13:45.020Z,16.10
2022-11-28T03:16:27.024Z,16.98
2022-11-28T03:19:06.180Z,16.15
2022-11-28T03:21:48.547Z,16.15
2022-11-28T03:24:28.680Z,16.40
2022-11-28T03:27:07.160Z,16.40
2022-11-28T03:29:45.110Z,15.80
2022-11-28T03:32:22.400Z,14.73
2022-11-28T03:35:10.414Z,14.73
2022-11-28T03:37:51.363Z,15.00
2022-11-28T03:40:31.609Z,16.55
2022-11-28T03:43:08.874Z,15.25
2022-11-28T03:45:51.706Z,16.08
2022-11-28T03:48:29.039Z,15.98
2022-11-28T03:51:07.205Z,15.93
2022-11-28T03:53:54.315Z,16.58
2022-11-28T03:56:35.801Z,16.10
2022-11-28T03:59:16.526Z,15.02
2022-11-28T04:02:01.540Z,16.63
2022-11-28T04:04:44.798Z,15.23
2022-11-28T04:07:27.419Z,16.45
2022-11-28T04:10:11.922Z,15.90
2022-11-28T04:12:54.761Z,16.00
2022-11-28T04:15:39.229Z,15.60
2022-11-28T04:18:24.198Z,16.17
2022-11-28T04:21:01.688Z,17.52
2022-11-28T04:23:37.958Z,15.25
2022-11-28T04:26:21.059Z,16.77
2022-11-28T04:28:56.526Z,16.33
2022-11-28T04:31:32.425Z,17.13
2022-11-28T04:34:10.877Z,15.07
2022-11-28T04:36:45.704Z,17.08
2022-11-28T04:39:22.040Z,16.33
2022-11-28T04:42:00.705Z,17.58
2022-11-28T04:44:38.942Z,16.70
2022-11-28T04:47:11.713Z,16.90
2022-11-28T04:49:44.013Z,17.77
2022-11-28T04:52:23.474Z,15.25
2022-11-28T04:55:02.862Z,18.10
2022-11-28T04:57:41.670Z,16.80
2022-11-28T05:00:17.310Z,16.55
2022-11-28T05:02:53.432Z,16.08
2022-11-28T05:05:28.800Z,15.88
2022-11-28T05:08:02.262Z,17.10
2022-11-28T05:10:35.321Z,16.55
2022-11-28T05:13:10.454Z,16.60
2022-11-28T05:15:42.783Z,16.73
2022-11-28T05:18:15.266Z,16.45
2022-11-28T05:20:47.541Z,17.65
2022-11-28T05:23:19.931Z,15.93
2022-11-28T05:25:51.903Z,16.27
2022-11-28T05:28:27.011Z,16.65
2022-11-28T05:31:02.514Z,16.10
2022-11-28T05:33:35.901Z,14.85
2022-11-28T05:36:12.962Z,14.77
2022-11-28T05:38:47.481Z,15.93
2022-11-28T05:41:23.631Z,14.80
2022-11-28T05:44:21.664Z,16.08
2022-11-28T05:46:58.089Z,15.48
2022-11-28T05:49:30.589Z,16.02
2022-11-28T05:52:02.802Z,16.80
2022-11-28T05:54:35.261Z,16.80
2022-11-28T05:57:08.472Z,16.55
2022-11-28T05:59:43.843Z,16.17
2022-11-28T06:02:16.266Z,14.75
2022-11-28T06:04:48.981Z,15.32
2022-11-28T06:07:21.889Z,15.75
2022-11-28T06:09:54.269Z,15.77
2022-11-28T06:12:26.606Z,17.52
2022-11-28T06:15:01.610Z,16.83
2022-11-28T06:17:35.082Z,15.75
2022-11-28T06:20:13.931Z,15.73
2022-11-28T06:22:45.847Z,16.80
2022-11-28T06:25:18.843Z,16.85
2022-11-28T06:27:50.777Z,16.52
2022-11-28T06:30:35.285Z,16.33
2022-11-28T06:33:07.957Z,17.50
2022-11-28T06:35:46.009Z,16.60
2022-11-28T06:38:17.873Z,18.25
2022-11-28T06:40:50.181Z,18.17
2022-11-28T06:43:23.797Z,17.77
2022-11-28T06:45:59.801Z,16.95
2022-11-28T06:48:35.098Z,18.05
2022-11-28T06:51:11.429Z,18.63
2022-11-28T06:53:43.924Z,19.60
2022-11-28T06:56:21.786Z,21.15
2022-11-28T06:58:58.632Z,29.95
2022-11-28T07:01:35.569Z,32.90
2022-11-28T07:04:07.525Z,36.20
2022-11-28T07:06:39.652Z,38.60
2022-11-28T07:09:11.840Z,32.17
2022-11-28T07:11:45.549Z,26.15
2022-11-28T07:14:17.553Z,24.77
2022-11-28T07:16:54.315Z,23.98
2022-11-28T07:19:28.435Z,19.73
2022-11-28T07:22:01.428Z,20.15
2022-11-28T07:24:36.313Z,19.77
2022-11-28T07:27:08.346Z,20.05
2022-11-28T07:29:40.166Z,19.85
2022-11-28T07:32:22.620Z,17.42
2022-11-28T07:34:55.646Z,19.65
2022-11-28T07:37:27.804Z,18.75
2022-11-28T07:40:01.467Z,18.88
2022-11-28T07:42:35.497Z,18.25
2022-11-28T07:45:12.909Z,18.38
2022-11-28T07:47:48.126Z,19.77
2022-11-28T07:50:20.762Z,18.70
2022-11-28T07:52:54.311Z,20.63
2022-11-28T07:55:25.992Z,21.15
2022-11-28T07:57:57.699Z,18.40
2022-11-28T08:00:31.512Z,20.27
2022-11-28T08:03:09.197Z,19.10
2022-11-28T08:05:40.244Z,19.23
2022-11-28T08:08:15.613Z,23.45
2022-11-28T08:10:49.831Z,20.90
2022-11-28T08:13:21.368Z,20.40
2022-11-28T08:15:52.986Z,18.27
2022-11-28T08:18:28.122Z,16.95
2022-11-28T08:21:10.442Z,18.23
2022-11-28T08:23:45.535Z,19.08
2022-11-28T08:26:19.525Z,19.10
2022-11-28T08:28:54.205Z,19.20
2022-11-28T08:31:29.318Z,19.50
2022-11-28T08:34:07.639Z,18.75
2022-11-28T08:36:40.397Z,20.70
2022-11-28T08:39:29.815Z,20.40
2022-11-28T08:42:01.952Z,18.92
2022-11-28T08:44:35.910Z,17.80
2022-11-28T08:47:08.310Z,19.30
2022-11-28T08:49:44.001Z,19.63
2022-11-28T08:52:16.277Z,20.17
2022-11-28T08:54:59.828Z,19.45
2022-11-28T08:57:34.393Z,19.10
2022-11-28T09:00:09.119Z,19.50
2022-11-28T09:02:41.238Z,18.55
2022-11-28T09:05:16.691Z,18.25
2022-11-28T09:07:48.843Z,19.60
2022-11-28T09:10:21.884Z,20.10
2022-11-28T09:12:54.233Z,18.05
2022-11-28T09:15:26.868Z,19.45
2022-11-28T09:17:59.138Z,18.98
2022-11-28T09:20:34.768Z,18.42
2022-11-28T09:23:07.886Z,17.95
2022-11-28T09:25:41.284Z,19.73
2022-11-28T09:28:13.365Z,19.77
2022-11-28T09:30:46.522Z,18.08
2022-11-28T09:33:19.090Z,18.42
2022-11-28T09:35:56.010Z,18.25
2022-11-28T09:38:28.297Z,17.77
2022-11-28T09:41:01.048Z,18.50
2022-11-28T09:43:37.449Z,17.88
2022-11-28T09:46:16.797Z,18.58
2022-11-28T09:48:52.729Z,18.02
2022-11-28T09:51:33.663Z,18.35
2022-11-28T09:54:16.626Z,19.08
2022-11-28T09:56:52.908Z,18.10
2022-11-28T09:59:29.839Z,17.45
2022-11-28T10:02:19.642Z,18.33
2022-11-28T10:05:00.105Z,19.33
2022-11-28T10:07:49.026Z,19.67
2022-11-28T10:10:34.284Z,18.95
2022-11-28T10:13:16.683Z,18.50
2022-11-28T10:15:56.681Z,19.15
2022-11-28T10:18:41.578Z,19.10
2022-11-28T10:21:31.776Z,18.27
2022-11-28T10:24:11.080Z,17.10
2022-11-28T10:26:47.870Z,19.33
2022-11-28T10:29:29.123Z,18.15
2022-11-28T10:32:05.214Z,17.77
2022-11-28T10:34:45.974Z,18.23
2022-11-28T10:37:25.134Z,20.58
2022-11-28T10:40:16.275Z,19.02
2022-11-28T10:42:58.431Z,17.90
2022-11-28T10:45:42.037Z,18.60
2022-11-28T10:48:40.600Z,18.90
2022-11-28T10:51:27.111Z,18.83
2022-11-28T10:54:17.712Z,19.08
2022-11-28T10:57:06.471Z,19.70
2022-11-28T10:59:53.350Z,18.38
2022-11-28T11:02:35.551Z,20.23
2022-11-28T11:05:10.554Z,20.23
2022-11-28T11:07:50.953Z,18.85
2022-11-28T11:10:27.591Z,19.55
2022-11-28T11:13:03.432Z,19.27
2022-11-28T11:15:37.320Z,18.77
2022-11-28T11:18:26.025Z,19.08
2022-11-28T11:21:13.186Z,18.17
2022-11-28T11:23:46.993Z,19.65
2022-11-28T11:26:29.176Z,19.98
2022-11-28T11:29:06.058Z,18.90
2022-11-28T11:31:47.576Z,18.33
2022-11-28T11:34:23.421Z,19.13
2022-11-28T11:37:23.643Z,18.77
2022-11-28T11:39:57.504Z,19.17
2022-11-28T11:42:31.885Z,18.65
2022-11-28T11:45:31.415Z,18.58
2022-11-28T11:48:05.412Z,17.35
2022-11-28T11:50:39.772Z,19.67
2022-11-28T11:53:17.254Z,17.80
2022-11-28T11:55:54.973Z,17.98
2022-11-28T11:58:32.454Z,19.42
2022-11-28T12:01:09.821Z,17.58
2022-11-28T12:03:45.674Z,18.02
2022-11-28T12:06:24.045Z,17.20
2022-11-28T12:09:03.962Z,18.88
2022-11-28T12:11:46.961Z,17.88
2022-11-28T12:14:33.656Z,18.25
2022-11-28T12:17:48.266Z,17.83
2022-11-28T12:20:38.956Z,18.00
2022-11-28T12:23:27.178Z,17.10
2022-11-28T12:26:09.694Z,16.77
2022-11-28T12:28:59.939Z,16.98
2022-11-28T12:31:43.894Z,17.20
2022-11-28T12:34:33.581Z,17.08
2022-11-28T12:37:18.329Z,16.42
2022-11-28T12:40:04.976Z,17.65
2022-11-28T12:42:50.847Z,16.20
2022-11-28T12:45:38.456Z,16.92
2022-11-28T12:48:23.602Z,16.85
2022-11-28T12:51:06.642Z,16.40
2022-11-28T12:54:02.918Z,16.27
2022-11-28T12:56:45.942Z,16.83
2022-11-28T12:59:26.582Z,15.57
2022-11-28T13:02:09.760Z,17.42
2022-11-28T13:05:06.039Z,17.15
2022-11-28T13:07:51.815Z,17.15
2022-11-28T13:10:31.284Z,16.92
2022-11-28T13:13:10.127Z,16.83
2022-11-28T13:16:01.368Z,15.27
2022-11-28T13:18:44.201Z,18.23
2022-11-28T13:21:29.016Z,18.27
2022-11-28T13:24:08.793Z,18.20
2022-11-28T13:26:51.254Z,18.75
2022-11-28T13:29:32.771Z,18.75
2022-11-28T13:32:16.781Z,16.83
2022-11-28T13:34:50.813Z,18.33
2022-11-28T13:40:41.299Z,20.67
2022-11-28T13:43:25.776Z,19.55
2022-11-28T13:45:59.518Z,18.95
2022-11-28T13:49:21.028Z,19.33
2022-11-28T13:52:26.369Z,19.67
2022-11-28T13:54:58.632Z,18.92
2022-11-28T13:57:40.224Z,20.30
2022-11-28T14:00:27.822Z,20.10
2022-11-28T14:03:02.217Z,20.48
2022-11-28T14:05:38.531Z,20.80
2022-11-28T14:08:30.578Z,19.08
2022-11-28T14:11:42.805Z,21.23
2022-11-28T14:14:55.755Z,20.63
2022-11-28T14:17:54.046Z,19.95
2022-11-28T14:20:36.188Z,21.27
2022-11-28T14:23:28.104Z,20.42
2022-11-28T14:26:01.998Z,20.42
2022-11-28T14:28:38.692Z,21.92
2022-11-28T14:31:34.595Z,22.23
2022-11-28T14:34:09.621Z,22.90
2022-11-28T14:36:44.159Z,23.15
2022-11-28T14:39:37.644Z,24.30
2022-11-28T14:45:47.349Z,22.80
2022-11-28T14:48:33.351Z,26.65
2022-11-28T14:51:06.589Z,27.10
2022-11-28T14:53:48.211Z,26.80
2022-11-28T14:56:33.122Z,26.70
2022-11-28T14:59:07.005Z,27.08
2022-11-28T15:01:59.216Z,27.48
2022-11-28T15:04:54.922Z,25.30
2022-11-28T15:07:36.746Z,27.40
2022-11-28T15:10:14.323Z,25.52
2022-11-28T15:12:58.430Z,29.17
2022-11-28T15:15:33.111Z,27.75
2022-11-28T15:18:08.339Z,28.35
2022-11-28T15:20:52.309Z,25.13
2022-11-28T15:23:29.895Z,28.45
2022-11-28T15:26:25.304Z,28.60
2022-11-28T15:29:14.888Z,27.20
2022-11-28T15:31:52.291Z,27.65
2022-11-28T15:34:29.259Z,29.13
2022-11-28T15:37:10.027Z,27.98
2022-11-28T15:39:44.842Z,27.80
2022-11-28T15:42:27.594Z,26.55
2022-11-28T15:45:01.501Z,24.15
2022-11-28T15:47:36.360Z,29.20
2022-11-28T15:50:21.823Z,28.60
2022-11-28T15:53:03.712Z,28.25
2022-11-28T15:55:37.476Z,27.25
2022-11-28T15:58:15.199Z,27.48
2022-11-28T16:00:52.248Z,28.35
2022-11-28T16:03:31.753Z,29.02
2022-11-28T16:06:04.155Z,27.77
2022-11-28T16:08:43.786Z,27.42
2022-11-28T16:11:21.227Z,24.95
2022-11-28T16:13:55.607Z,29.17
2022-11-28T16:16:31.732Z,27.55
2022-11-28T16:19:08.702Z,28.67
2022-11-28T16:21:47.496Z,27.35
2022-11-28T16:24:32.471Z,29.85
2022-11-28T16:27:09.021Z,28.48
2022-11-28T16:29:50.405Z,28.77
2022-11-28T16:32:26.993Z,30.25
2022-11-28T16:35:01.485Z,30.17
2022-11-28T16:37:35.662Z,29.55
2022-11-28T16:40:20.283Z,29.73
2022-11-28T16:43:02.385Z,29.17
2022-11-28T16:45:39.655Z,30.10
2022-11-28T16:48:15.867Z,30.58
2022-11-28T16:51:23.555Z,30.88
2022-11-28T16:53:59.899Z,28.88
2022-11-28T16:56:51.279Z,30.23
2022-11-28T16:59:24.379Z,30.98
2022-11-28T17:01:57.540Z,28.58
2022-11-28T17:04:31.927Z,30.80
2022-11-28T17:07:06.061Z,30.92
2022-11-28T17:09:39.358Z,30.52
2022-11-28T17:12:23.081Z,27.77
2022-11-28T17:14:55.300Z,30.83
2022-11-28T17:17:28.404Z,31.10
2022-11-28T17:20:00.876Z,31.38
2022-11-28T17:22:43.188Z,28.35
2022-11-28T17:25:19.056Z,31.15
2022-11-28T17:27:55.012Z,31.33
2022-11-28T17:30:26.324Z,31.88
2022-11-28T17:33:01.955Z,31.77
2022-11-28T17:35:40.462Z,29.70
2022-11-28T17:38:12.687Z,30.70
2022-11-28T17:40:45.237Z,31.67
2022-11-28T17:43:24.972Z,31.85
2022-11-28T17:45:58.871Z,33.58
2022-11-28T17:48:31.026Z,31.58
2022-11-28T17:51:07.086Z,33.58
2022-11-28T17:53:40.445Z,34.97
2022-11-28T17:56:15.801Z,32.35
2022-11-28T17:58:51.802Z,34.50
2022-11-28T18:01:31.191Z,34.13
2022-11-28T18:04:04.990Z,35.40
2022-11-28T18:06:39.953Z,35.83
2022-11-28T18:09:12.393Z,34.88
2022-11-28T18:11:46.725Z,33.20
2022-11-28T18:14:21.159Z,35.95
2022-11-28T18:16:52.636Z,36.03
2022-11-28T18:19:25.331Z,36.08
2022-11-28T18:21:56.645Z,35.92
2022-11-28T18:24:29.399Z,35.72
2022-11-28T18:27:01.051Z,35.22
2022-11-28T18:29:38.005Z,36.13
2022-11-28T18:32:09.714Z,35.15
2022-11-28T18:34:41.813Z,34.83
2022-11-28T18:37:13.203Z,35.33
2022-11-28T18:39:45.359Z,35.63
2022-11-28T18:42:18.231Z,36.03
2022-11-28T18:44:52.929Z,36.10
2022-11-28T18:47:25.071Z,36.35
2022-11-28T18:49:57.801Z,36.95
2022-11-28T18:52:29.734Z,35.85
2022-11-28T18:55:06.227Z,37.33
2022-11-28T18:57:37.669Z,37.35
2022-11-28T19:00:14.570Z,36.47
2022-11-28T19:02:45.838Z,36.40
2022-11-28T19:05:17.759Z,37.88
2022-11-28T19:07:49.204Z,37.13
2022-11-28T19:10:21.314Z,37.17
2022-11-28T19:12:53.212Z,36.38
2022-11-28T19:15:33.709Z,35.45
2022-11-28T19:18:04.713Z,37.28
2022-11-28T19:20:38.389Z,36.00
2022-11-28T19:23:09.819Z,35.88
2022-11-28T19:25:44.591Z,37.60
2022-11-28T19:28:17.358Z,32.97
2022-11-28T19:30:51.478Z,36.80
2022-11-28T19:33:23.157Z,37.08
2022-11-28T19:35:54.828Z,36.10
2022-11-28T19:38:31.028Z,37.67
2022-11-28T19:41:08.916Z,38.60
2022-11-28T19:43:40.395Z,35.83
2022-11-28T19:46:17.074Z,36.95
2022-11-28T19:48:48.628Z,37.25
2022-11-28T19:51:21.712Z,39.05
2022-11-28T19:53:52.970Z,37.70
2022-11-28T19:56:25.511Z,37.85
2022-11-28T19:58:56.849Z,35.15
2022-11-28T20:01:31.397Z,35.10
2022-11-28T20:04:02.924Z,34.05
2022-11-28T20:06:36.818Z,37.38
2022-11-28T20:09:16.366Z,35.38
2022-11-28T20:11:48.430Z,34.67
2022-11-28T20:14:23.916Z,35.67
2022-11-28T20:17:01.217Z,36.05
2022-11-28T20:19:36.607Z,34.88
2022-11-28T20:22:08.593Z,34.22
2022-11-28T20:24:40.493Z,33.15
2022-11-28T20:27:13.763Z,35.58
2022-11-28T20:29:45.870Z,36.00
2022-11-28T20:32:21.123Z,35.10
2022-11-28T20:34:53.522Z,34.83
2022-11-28T20:37:26.407Z,37.65
2022-11-28T20:39:58.905Z,36.63
2022-11-28T20:42:36.650Z,35.13
2022-11-28T20:45:12.643Z,36.05
2022-11-28T20:47:49.963Z,37.38
2022-11-28T20:50:22.925Z,33.92
2022-11-28T20:52:55.705Z,37.03
2022-11-28T20:55:28.166Z,34.50
2022-11-28T20:58:00.788Z,35.95
2022-11-28T21:00:33.023Z,35.15
2022-11-28T21:03:18.309Z,35.50
2022-11-28T21:05:57.854Z,35.10
2022-11-28T21:08:34.216Z,34.42
2022-11-28T21:11:10.345Z,34.13
2022-11-28T21:13:43.099Z,33.70
2022-11-28T21:16:17.132Z,33.88
2022-11-28T21:18:49.612Z,33.88
2022-11-28T21:21:26.783Z,34.85
2022-11-28T21:24:01.248Z,35.33
2022-11-28T21:26:54.415Z,33.10
2022-11-28T21:29:27.779Z,33.83
2022-11-28T21:31:59.451Z,35.30
2022-11-28T21:34:31.458Z,36.38
2022-11-28T21:37:05.937Z,35.17
2022-11-28T21:39:38.093Z,34.45
2022-11-28T21:42:09.574Z,36.25
2022-11-28T21:44:41.834Z,33.20
2022-11-28T21:47:13.624Z,35.67
2022-11-28T21:49:45.681Z,36.00
2022-11-28T21:52:23.840Z,35.53
2022-11-28T21:54:55.846Z,36.50
2022-11-28T21:57:27.394Z,36.40
2022-11-28T21:59:59.239Z,32.97
2022-11-28T22:02:31.286Z,34.70
2022-11-28T22:05:03.377Z,34.95
2022-11-28T22:07:38.527Z,34.95
2022-11-28T22:10:12.091Z,40.28
2022-11-28T22:12:43.473Z,35.20
2022-11-28T22:15:15.510Z,34.85
2022-11-28T22:17:47.134Z,33.47
2022-11-28T22:20:19.385Z,34.28
2022-11-28T22:22:54.070Z,34.47
2022-11-28T22:25:25.680Z,35.42
2022-11-28T22:27:57.433Z,32.88
2022-11-28T22:30:29.414Z,33.15
2022-11-28T22:33:00.581Z,33.00
2022-11-28T22:35:32.594Z,32.78
2022-11-28T22:38:07.134Z,32.92
2022-11-28T22:40:40.720Z,32.08
2022-11-28T22:43:13.198Z,34.00
2022-11-28T22:45:44.885Z,31.85
2022-11-28T22:48:15.933Z,34.03
2022-11-28T22:50:47.598Z,35.17
2022-11-28T22:53:21.649Z,36.95
2022-11-28T22:55:53.307Z,38.95
2022-11-28T22:58:24.411Z,40.67
2022-11-28T23:00:56.084Z,42.65
2022-11-28T23:03:27.851Z,42.42
2022-11-28T23:05:59.511Z,43.95
2022-11-28T23:08:36.332Z,45.30
2022-11-28T23:11:09.537Z,43.97
2022-11-28T23:13:42.419Z,46.97
2022-11-28T23:16:16.790Z,46.80
2022-11-28T23:18:49.805Z,49.20
2022-11-28T23:21:23.442Z,46.40
2022-11-28T23:23:57.603Z,49.55
2022-11-28T23:26:31.608Z,49.25
2022-11-28T23:29:03.947Z,50.13
2022-11-28T23:31:37.950Z,50.78
2022-11-28T23:34:09.565Z,47.85
2022-11-28T23:36:43.431Z,42.83
2022-11-28T23:39:19.255Z,45.55
2022-11-28T23:41:51.395Z,46.17
2022-11-28T23:44:23.108Z,43.97
2022-11-28T23:46:54.594Z,43.47
2022-11-28T23:49:25.639Z,42.78
2022-11-28T23:51:57.272Z,42.33
2022-11-28T23:54:31.265Z,40.83
2022-11-28T23:57:03.100Z,40.88
2022-11-28T23:59:34.502Z,36.92
